Time;durP1;ratioP1;P1;durP2;ratioP2;P2;SDS_P1;SDS_P2;PMS_P1;PMS_P2;Temp;Humidity;BMP_temperature;BMP_pressure;BME280_temperature;BME280_humidity;BME280_pressure;Samples;Min_cycle;Max_cycle;Signal;HPM_P1;HPM_P2
2022/04/01 04:01:37;;;;;;;11.03;5.63;;;0.10;96.30;;;;;;5420781;23;20503;-74
2022/04/01 04:04:03;;;;;;;17.30;6.40;;;0.10;96.30;;;;;;4967028;28;20428;-75
2022/04/01 04:06:29;;;;;;;10.47;6.43;;;0.20;96.30;;;;;;4966506;28;20413;-75
2022/04/01 04:08:57;;;;;;;9.73;5.43;;;0.10;96.30;;;;;;4976483;28;20402;-74
2022/04/01 04:11:27;;;;;;;9.70;5.63;;;0.10;96.30;;;;;;4958305;28;20244;-75
2022/04/01 04:13:54;;;;;;;6.50;5.47;;;0.10;96.30;;;;;;4958470;28;20418;-75
2022/04/01 04:16:29;;;;;;;11.20;6.50;;;0.10;96.30;;;;;;4952867;28;20555;-74
2022/04/01 04:19:18;;;;;;;5.70;3.93;;;0.10;96.30;;;;;;4974843;28;21054;-73
2022/04/01 04:22:03;;;;;;;9.17;5.80;;;0.10;96.30;;;;;;4958481;28;20429;-74
2022/04/01 04:24:30;;;;;;;9.80;4.60;;;0.10;96.30;;;;;;4973903;28;20421;-72
2022/04/01 04:27:12;;;;;;;17.80;6.07;;;0.00;96.30;;;;;;4958061;28;20413;-75
2022/04/01 04:29:49;;;;;;;8.20;4.80;;;0.00;96.30;;;;;;4975453;28;20433;-75
2022/04/01 04:32:32;;;;;;;6.70;3.90;;;0.00;96.30;;;;;;4975333;28;20429;-72
2022/04/01 04:35:00;;;;;;;5.87;4.80;;;0.10;96.30;;;;;;4975731;28;20432;-74
2022/04/01 04:37:29;;;;;;;9.63;5.83;;;0.00;96.30;;;;;;4974285;28;20434;-74
2022/04/01 04:39:55;;;;;;;8.80;5.83;;;0.00;96.30;;;;;;4958018;28;20825;-73
2022/04/01 04:42:21;;;;;;;11.60;5.50;;;0.00;96.30;;;;;;4975124;28;20461;-75
2022/04/01 04:44:48;;;;;;;7.10;4.60;;;0.00;96.30;;;;;;4957800;28;20478;-73
2022/04/01 04:47:15;;;;;;;13.10;5.70;;;0.00;96.30;;;;;;4957480;28;20174;-74
2022/04/01 04:49:47;;;;;;;8.20;4.43;;;-0.10;96.30;;;;;;4957021;28;20436;-72
2022/04/01 04:52:15;;;;;;;15.23;4.43;;;-0.10;96.30;;;;;;4957982;28;20442;-74
2022/04/01 04:54:41;;;;;;;8.83;3.13;;;-0.20;96.30;;;;;;4957952;28;20414;-75
2022/04/01 04:57:07;;;;;;;8.13;4.17;;;-0.20;96.30;;;;;;4974682;28;20516;-74
2022/04/01 04:59:35;;;;;;;7.90;4.17;;;-0.30;96.30;;;;;;4974303;28;20209;-74
2022/04/01 05:02:08;;;;;;;11.33;4.20;;;-0.20;96.30;;;;;;4975312;28;20532;-76
2022/04/01 05:04:52;;;;;;;6.70;4.50;;;-0.20;96.30;;;;;;4958154;28;20446;-74
2022/04/01 05:07:34;;;;;;;11.73;3.30;;;-0.30;96.30;;;;;;4957683;28;20418;-74
2022/04/01 05:10:08;;;;;;;6.43;4.17;;;-0.30;96.30;;;;;;4957794;28;20741;-74
2022/04/01 05:12:57;;;;;;;5.10;3.10;;;-0.30;96.30;;;;;;4970820;28;20433;-74
2022/04/01 05:15:34;;;;;;;6.13;4.53;;;-0.30;96.30;;;;;;4974306;28;20418;-73
2022/04/01 05:18:25;;;;;;;9.23;4.90;;;-0.40;96.30;;;;;;4956701;28;20417;-75
2022/04/01 05:20:58;;;;;;;6.37;3.80;;;-0.30;96.30;;;;;;4974677;28;20964;-74
2022/04/01 05:23:48;;;;;;;8.77;4.53;;;-0.30;96.30;;;;;;4973988;28;20772;-75
2022/04/01 05:26:20;;;;;;;10.57;3.50;;;-0.20;96.30;;;;;;4959751;28;20425;-74
2022/04/01 05:28:51;;;;;;;6.27;2.90;;;-0.20;96.30;;;;;;4956798;28;20413;-76
2022/04/01 05:31:25;;;;;;;4.40;3.23;;;-0.20;96.30;;;;;;4956707;28;20521;-74
2022/04/01 05:34:07;;;;;;;17.70;5.87;;;-0.30;96.30;;;;;;4972170;28;20429;-75
2022/04/01 05:36:34;;;;;;;8.30;3.80;;;-0.30;96.30;;;;;;4974323;28;20417;-75
2022/04/01 05:39:00;;;;;;;9.40;3.73;;;-0.30;96.30;;;;;;4973666;28;20861;-77
2022/04/01 05:41:27;;;;;;;5.30;3.00;;;-0.30;96.30;;;;;;4974230;28;20925;-76
2022/04/01 05:43:57;;;;;;;11.30;3.50;;;-0.40;96.30;;;;;;4956220;28;20985;-77
2022/04/01 05:46:24;;;;;;;8.67;3.90;;;-0.40;96.30;;;;;;4973768;28;20935;-77
2022/04/01 05:48:50;;;;;;;10.23;3.60;;;-0.40;96.30;;;;;;4970641;28;20941;-76
2022/04/01 05:51:16;;;;;;;4.00;2.63;;;-0.40;96.30;;;;;;4956352;28;20444;-75
2022/04/01 05:53:46;;;;;;;3.67;3.30;;;-0.50;96.30;;;;;;4956385;28;20646;-75
2022/04/01 05:56:14;;;;;;;4.57;3.57;;;-0.50;96.30;;;;;;4971089;28;20229;-75
2022/04/01 05:58:40;;;;;;;8.97;5.03;;;-0.50;96.30;;;;;;4972440;28;20484;-76
2022/04/01 06:01:26;;;;;;;6.13;2.93;;;-0.60;96.30;;;;;;4972932;28;20832;-76
2022/04/01 06:04:07;;;;;;;7.53;3.80;;;-0.60;96.30;;;;;;4973668;28;20410;-77
2022/04/01 06:06:42;;;;;;;6.00;4.23;;;-0.60;96.30;;;;;;4963117;28;20481;-76
2022/04/01 06:09:35;;;;;;;5.97;3.17;;;-0.60;96.30;;;;;;4955838;28;20471;-76
2022/04/01 06:12:11;;;;;;;7.50;4.70;;;-0.70;96.30;;;;;;4962201;28;20442;-77
2022/04/01 06:15:03;;;;;;;6.77;4.57;;;-0.80;96.30;;;;;;4975779;28;20438;-77
2022/04/01 06:17:57;;;;;;;6.07;4.60;;;-0.80;96.30;;;;;;4942732;29;20431;-77
2022/04/01 06:20:26;;;;;;;6.60;4.57;;;-0.80;96.30;;;;;;4953079;29;20544;-76
2022/04/01 06:23:26;;;;;;;5.00;4.10;;;-0.70;96.30;;;;;;4937795;28;20450;-76
2022/04/01 06:25:58;;;;;;;8.70;5.27;;;-0.90;96.30;;;;;;4972207;28;20426;-77
2022/04/01 06:28:28;;;;;;;5.33;3.17;;;-0.80;96.30;;;;;;4972780;28;20413;-76
2022/04/01 06:31:01;;;;;;;9.20;4.33;;;-0.80;96.30;;;;;;4973477;28;20449;-75
2022/04/01 06:33:39;;;;;;;6.60;3.60;;;-0.90;96.30;;;;;;4973080;28;20417;-75
2022/04/01 06:36:06;;;;;;;10.40;4.90;;;-1.00;96.30;;;;;;4973758;28;20394;-76
2022/04/01 06:39:04;;;;;;;5.40;4.30;;;-1.10;96.30;;;;;;4955632;28;20508;-76
2022/04/01 06:41:41;;;;;;;7.33;4.47;;;-1.10;96.30;;;;;;4956345;28;20775;-76
2022/04/01 06:44:07;;;;;;;7.57;4.00;;;-1.10;96.30;;;;;;4973487;28;20812;-76
2022/04/01 06:46:32;;;;;;;9.30;4.63;;;-1.20;96.30;;;;;;4956646;28;20488;-76
2022/04/01 06:48:58;;;;;;;8.23;5.17;;;-1.20;96.30;;;;;;4973152;28;20178;-76
2022/04/01 06:51:23;;;;;;;7.23;4.00;;;-1.20;96.30;;;;;;4972986;28;20214;-75
2022/04/01 06:53:49;;;;;;;6.47;4.47;;;-1.20;96.30;;;;;;4973484;28;20190;-76
2022/04/01 06:56:14;;;;;;;9.83;5.40;;;-1.30;96.30;;;;;;4956164;28;20190;-75
2022/04/01 06:58:40;;;;;;;4.23;3.43;;;-1.30;96.30;;;;;;4954843;28;20202;-76
2022/04/01 07:01:05;;;;;;;5.27;3.93;;;-1.30;96.30;;;;;;4955752;28;20210;-75
2022/04/01 07:03:31;;;;;;;4.73;3.20;;;-1.20;96.30;;;;;;4972688;28;20217;-75
2022/04/01 07:05:58;;;;;;;4.40;3.80;;;-1.20;96.30;;;;;;4955951;28;20208;-75
2022/04/01 07:08:23;;;;;;;5.47;4.40;;;-1.20;96.30;;;;;;4955351;28;20523;-76
2022/04/01 07:10:49;;;;;;;5.83;4.77;;;-1.20;96.30;;;;;;4955807;28;20516;-75
2022/04/01 07:13:16;;;;;;;5.27;3.97;;;-1.20;96.30;;;;;;4973186;28;20558;-75
2022/04/01 07:15:41;;;;;;;9.13;4.77;;;-1.20;96.30;;;;;;4956149;28;20174;-76
2022/04/01 07:18:07;;;;;;;6.60;3.73;;;-1.20;96.30;;;;;;4972250;28;20432;-75
2022/04/01 07:20:33;;;;;;;5.77;4.30;;;-1.20;96.30;;;;;;4973356;28;20209;-74
2022/04/01 07:22:59;;;;;;;8.53;6.10;;;-1.10;96.30;;;;;;4973353;28;20178;-75
2022/04/01 07:25:25;;;;;;;5.50;3.60;;;-1.10;96.30;;;;;;4955479;28;20174;-72
2022/04/01 07:27:52;;;;;;;7.23;5.40;;;-1.20;96.30;;;;;;4972583;28;20418;-73
2022/04/01 07:30:17;;;;;;;7.13;4.97;;;-1.20;96.30;;;;;;4972898;28;20801;-71
2022/04/01 07:32:44;;;;;;;6.30;5.10;;;-1.10;96.30;;;;;;4972871;28;20410;-72
2022/04/01 07:35:13;;;;;;;6.17;5.57;;;-1.20;96.30;;;;;;4955806;28;20185;-72
2022/04/01 07:37:39;;;;;;;6.33;5.30;;;-1.10;96.30;;;;;;4955136;28;21073;-71
2022/04/01 07:40:06;;;;;;;6.70;5.57;;;-1.10;96.30;;;;;;4972926;28;20460;-72
2022/04/01 07:42:32;;;;;;;8.60;5.33;;;-1.10;96.30;;;;;;4972754;28;20988;-72
2022/04/01 07:44:58;;;;;;;15.53;5.80;;;-1.20;96.30;;;;;;4972846;28;20935;-72
2022/04/01 07:47:24;;;;;;;4.93;4.20;;;-1.10;96.30;;;;;;4975102;28;20405;-73
2022/04/01 07:49:51;;;;;;;5.20;4.67;;;-1.10;96.30;;;;;;4976466;28;20186;-73
2022/04/01 07:52:19;;;;;;;6.13;4.03;;;-1.20;96.30;;;;;;4959378;28;20253;-72
2022/04/01 07:54:46;;;;;;;3.43;2.87;;;-1.10;96.30;;;;;;4976317;28;20492;-73
2022/04/01 07:57:13;;;;;;;4.80;4.30;;;-1.20;96.30;;;;;;4976245;28;20936;-75
2022/04/01 07:59:38;;;;;;;5.70;4.67;;;-1.20;96.30;;;;;;4958566;28;20461;-72
2022/04/01 08:02:06;;;;;;;3.30;3.00;;;-1.20;96.30;;;;;;4976270;28;20453;-73
2022/04/01 08:04:32;;;;;;;6.80;5.47;;;-1.10;96.30;;;;;;4976287;28;20194;-73
2022/04/01 08:06:58;;;;;;;4.83;4.20;;;-1.10;96.30;;;;;;4976333;28;20812;-73
2022/04/01 08:09:25;;;;;;;8.03;6.03;;;-1.00;96.30;;;;;;4975423;28;20848;-73
2022/04/01 08:11:51;;;;;;;6.30;3.27;;;-1.00;96.30;;;;;;4976245;28;20532;-73
2022/04/01 08:14:17;;;;;;;10.97;3.93;;;-1.00;96.30;;;;;;4976189;28;20455;-72
2022/04/01 08:16:43;;;;;;;5.90;4.40;;;-1.10;96.30;;;;;;4976049;28;20901;-73
2022/04/01 08:19:09;;;;;;;5.97;4.87;;;-1.00;96.30;;;;;;4975780;28;20202;-73
2022/04/01 08:21:35;;;;;;;5.67;4.33;;;-1.00;96.30;;;;;;4975892;28;20445;-73
2022/04/01 08:24:00;;;;;;;5.80;4.97;;;-1.00;96.30;;;;;;4976033;28;20446;-75
2022/04/01 08:26:26;;;;;;;5.33;4.70;;;-1.10;96.30;;;;;;4975913;28;20209;-73
2022/04/01 08:28:53;;;;;;;7.50;5.43;;;-1.20;96.30;;;;;;4975862;28;20241;-77
2022/04/01 08:31:19;;;;;;;4.47;4.07;;;-1.20;96.30;;;;;;4976396;28;20484;-76
2022/04/01 08:33:46;;;;;;;4.93;4.23;;;-1.40;96.30;;;;;;4975643;28;20480;-76
2022/04/01 08:36:12;;;;;;;5.10;4.07;;;-1.30;96.30;;;;;;4976678;28;20454;-77
2022/04/01 08:38:37;;;;;;;4.57;4.17;;;-1.40;96.30;;;;;;4975743;28;20437;-77
2022/04/01 08:41:03;;;;;;;4.80;4.00;;;-1.40;96.30;;;;;;4976824;28;20194;-78
2022/04/01 08:43:39;;;;;;;6.93;5.10;;;-1.40;96.30;;;;;;4961269;28;20174;-78
2022/04/01 08:46:07;;;;;;;5.93;5.33;;;-1.30;96.30;;;;;;4978526;28;20432;-81
2022/04/01 08:48:33;;;;;;;6.03;5.43;;;-1.20;96.30;;;;;;4959098;28;20418;-81
2022/04/01 08:50:59;;;;;;;4.10;3.70;;;-1.20;96.30;;;;;;4959284;28;20542;-81
2022/04/01 08:53:25;;;;;;;5.73;5.20;;;-1.30;96.30;;;;;;4959407;28;20457;-79
2022/04/01 08:55:55;;;;;;;6.33;4.63;;;-1.40;96.30;;;;;;4965425;28;20714;-80
2022/04/01 08:58:23;;;;;;;4.10;3.27;;;-1.40;96.30;;;;;;4977657;28;20205;-78
2022/04/01 09:00:52;;;;;;;8.50;5.53;;;-1.40;96.30;;;;;;4957274;28;20465;-78
2022/04/01 09:03:21;;;;;;;5.20;4.10;;;-1.40;96.30;;;;;;4975277;28;20917;-78
2022/04/01 09:05:59;;;;;;;12.67;4.47;;;-1.50;96.30;;;;;;4974884;28;20402;-78
2022/04/01 09:08:35;;;;;;;6.37;4.60;;;-1.40;96.30;;;;;;4974181;28;20944;-78
2022/04/01 09:11:07;;;;;;;6.77;4.90;;;-1.30;96.30;;;;;;4957291;28;20445;-78
2022/04/01 09:13:53;;;;;;;4.50;3.40;;;-1.30;96.30;;;;;;4957831;28;20445;-78
2022/04/01 09:16:36;;;;;;;4.37;3.67;;;-1.30;96.30;;;;;;4974156;28;20914;-78
2022/04/01 09:19:04;;;;;;;5.90;4.27;;;-1.30;96.30;;;;;;4957224;28;20468;-79
2022/04/01 09:21:32;;;;;;;4.70;4.17;;;-1.30;96.30;;;;;;4957036;28;20449;-78
2022/04/01 09:23:59;;;;;;;4.83;4.33;;;-1.20;96.30;;;;;;4974905;28;20458;-78
2022/04/01 09:26:35;;;;;;;8.07;5.10;;;-1.20;96.30;;;;;;4974559;28;20442;-78
2022/04/01 09:29:03;;;;;;;4.30;3.80;;;-1.20;96.30;;;;;;4973773;28;20791;-78
2022/04/01 09:31:34;;;;;;;5.07;3.50;;;-1.00;96.30;;;;;;4974372;28;20460;-79
2022/04/01 09:34:00;;;;;;;5.27;4.10;;;-1.00;96.30;;;;;;4974662;28;20893;-77
2022/04/01 09:36:41;;;;;;;4.03;3.50;;;-1.00;96.30;;;;;;4974439;28;20421;-78
2022/04/01 09:39:08;;;;;;;7.30;3.77;;;-1.10;96.30;;;;;;4956315;28;20464;-79
2022/04/01 09:41:35;;;;;;;4.17;3.77;;;-1.10;96.30;;;;;;4957213;28;20948;-78
2022/04/01 09:44:10;;;;;;;3.93;3.53;;;-1.10;96.30;;;;;;4957128;28;20819;-79
2022/04/01 09:46:42;;;;;;;6.50;4.80;;;-1.10;96.30;;;;;;4957064;28;20782;-79
2022/04/01 09:49:08;;;;;;;6.30;3.10;;;-1.20;96.30;;;;;;4973754;28;20417;-78
2022/04/01 09:51:34;;;;;;;4.43;4.03;;;-1.20;96.30;;;;;;4956582;28;20445;-77
2022/04/01 09:54:03;;;;;;;3.20;2.90;;;-1.10;96.30;;;;;;4956866;28;20921;-76
2022/04/01 09:56:43;;;;;;;5.53;4.93;;;-1.20;96.30;;;;;;4956560;28;20484;-80
2022/04/01 09:59:11;;;;;;;6.53;4.90;;;-1.10;96.30;;;;;;4953558;28;20481;-74
2022/04/01 10:01:38;;;;;;;3.73;2.10;;;-1.00;96.30;;;;;;4973971;28;20489;-74
2022/04/01 10:04:04;;;;;;;4.03;3.00;;;-0.90;96.30;;;;;;4974152;28;20414;-72
2022/04/01 10:06:32;;;;;;;4.17;3.23;;;-1.20;96.30;;;;;;4956414;28;20682;-72
2022/04/01 10:09:02;;;;;;;3.70;3.30;;;-1.20;96.30;;;;;;4970102;28;21083;-72
2022/04/01 10:11:29;;;;;;;6.77;3.90;;;-1.20;96.30;;;;;;4955103;28;20885;-73
2022/04/01 10:13:56;;;;;;;3.30;3.00;;;-1.20;96.30;;;;;;4973812;28;20429;-72
2022/04/01 10:16:22;;;;;;;8.97;4.63;;;-1.10;96.30;;;;;;4956520;28;21064;-74
2022/04/01 10:18:49;;;;;;;4.40;4.00;;;-1.10;96.30;;;;;;4973087;28;20504;-72
2022/04/01 10:21:19;;;;;;;5.47;3.93;;;-1.00;96.30;;;;;;4973867;28;20266;-73
2022/04/01 10:23:54;;;;;;;6.63;3.97;;;-1.10;96.30;;;;;;4973420;28;20445;-75
2022/04/01 10:26:21;;;;;;;4.80;4.30;;;-1.10;96.30;;;;;;4973819;28;20413;-72
2022/04/01 10:28:50;;;;;;;7.50;6.10;;;-0.90;96.30;;;;;;4973256;28;20503;-72
2022/04/01 10:31:16;;;;;;;5.80;4.50;;;-0.70;96.30;;;;;;4973192;28;20441;-72
2022/04/01 10:33:41;;;;;;;3.70;3.23;;;-0.70;96.30;;;;;;4956224;28;20768;-72
2022/04/01 10:36:20;;;;;;;4.13;3.73;;;-0.80;96.30;;;;;;4955954;28;20848;-73
2022/04/01 10:38:58;;;;;;;8.60;5.70;;;-0.90;96.30;;;;;;4972104;28;20198;-72
2022/04/01 10:41:23;;;;;;;6.10;5.50;;;-0.90;96.30;;;;;;4973362;28;20480;-72
2022/04/01 10:43:55;;;;;;;4.77;4.13;;;-1.00;96.30;;;;;;4956147;28;20937;-71
2022/04/01 10:46:20;;;;;;;9.07;5.70;;;-0.90;96.30;;;;;;4973637;28;20174;-71
2022/04/01 10:52:11;;;;;;;4.37;3.60;;;-1.10;96.30;;;;;;4965533;28;20264;-72
2022/04/01 10:54:42;;;;;;;7.97;6.40;;;-1.00;96.30;;;;;;4956187;28;20422;-72
2022/04/01 10:57:10;;;;;;;10.87;7.30;;;-1.00;96.30;;;;;;4973556;28;20531;-72
2022/04/01 10:59:45;;;;;;;7.57;6.70;;;-0.90;96.30;;;;;;4972445;28;20842;-72
2022/04/01 11:02:15;;;;;;;8.13;6.77;;;-0.90;96.30;;;;;;4973249;28;20459;-72
2022/04/01 11:04:42;;;;;;;8.83;6.80;;;-1.00;96.30;;;;;;4973332;28;20490;-72
2022/04/01 11:07:12;;;;;;;8.37;6.43;;;-0.90;96.30;;;;;;4955972;28;20472;-72
2022/04/01 11:09:42;;;;;;;10.73;6.40;;;-0.90;96.30;;;;;;4972836;28;20489;-72
2022/04/01 11:12:16;;;;;;;12.10;7.30;;;-1.00;96.30;;;;;;4955459;28;20445;-71
2022/04/01 11:14:58;;;;;;;12.73;7.40;;;-1.00;96.30;;;;;;4955927;28;20416;-72
2022/04/01 11:17:34;;;;;;;7.93;6.90;;;-0.90;96.30;;;;;;4955880;28;20421;-73
2022/04/01 11:20:05;;;;;;;10.10;7.90;;;-0.90;96.30;;;;;;4973218;28;20456;-73
2022/04/01 11:22:42;;;;;;;11.70;8.20;;;-1.00;96.30;;;;;;4975986;28;20960;-74
2022/04/01 11:25:27;;;;;;;11.33;8.00;;;-0.90;96.30;;;;;;4977426;28;20405;-75
2022/04/01 11:27:59;;;;;;;9.97;8.10;;;-1.00;96.30;;;;;;4959097;28;20410;-74
2022/04/01 11:30:29;;;;;;;10.13;7.60;;;-1.00;96.30;;;;;;4977009;28;20472;-76
2022/04/01 11:33:01;;;;;;;11.57;8.50;;;-1.00;96.30;;;;;;4977120;28;20457;-74
2022/04/01 11:35:29;;;;;;;8.33;6.90;;;-0.90;96.30;;;;;;4959313;28;20430;-76
2022/04/01 11:37:55;;;;;;;9.67;7.43;;;-0.90;96.30;;;;;;4975871;28;20425;-76
2022/04/01 11:40:25;;;;;;;9.13;7.83;;;-0.90;96.30;;;;;;4976445;28;20960;-75
2022/04/01 11:43:03;;;;;;;10.67;8.07;;;-0.90;96.30;;;;;;4959356;28;20529;-77
2022/04/01 11:45:33;;;;;;;11.60;6.80;;;-0.80;96.30;;;;;;4975107;28;20547;-76
2022/04/01 11:48:16;;;;;;;9.33;8.00;;;-0.90;96.30;;;;;;4976059;28;20886;-76
2022/04/01 11:50:54;;;;;;;11.27;8.57;;;-0.80;96.30;;;;;;4976154;28;20452;-77
2022/04/01 11:53:37;;;;;;;12.80;7.90;;;-0.70;96.30;;;;;;4975680;28;20421;-76
2022/04/01 11:56:05;;;;;;;5.10;4.70;;;-0.70;96.30;;;;;;4975822;28;20957;-76
2022/04/01 11:59:01;;;;;;;6.80;5.97;;;-0.70;96.30;;;;;;4974909;28;20504;-75
2022/04/01 12:01:34;;;;;;;10.00;7.47;;;-0.70;96.30;;;;;;4967464;28;20892;-75
2022/04/01 12:04:03;;;;;;;8.70;6.43;;;-0.60;96.30;;;;;;4958680;28;20457;-74
2022/04/01 12:09:12;;;;;;;7.60;5.50;;;-0.70;96.30;;;;;;4974478;28;20449;-74
2022/04/01 12:11:42;;;;;;;7.10;6.07;;;-0.80;96.30;;;;;;4957669;28;20441;-75
2022/04/01 12:14:10;;;;;;;12.20;8.03;;;-0.80;96.30;;;;;;4959067;28;20170;-76
2022/04/01 12:16:40;;;;;;;9.50;6.30;;;-0.80;96.30;;;;;;4975756;28;20420;-78
2022/04/01 12:19:06;;;;;;;8.50;6.40;;;-0.80;96.30;;;;;;4972795;28;20457;-76
2022/04/01 12:26:44;;;;;;;10.60;8.13;;;-1.10;96.30;;;;;;5452681;23;20497;-72
2022/04/01 12:29:24;;;;;;;11.10;7.60;;;-1.10;96.30;;;;;;4975410;28;20430;-73
2022/04/01 12:32:07;;;;;;;9.23;7.37;;;-0.90;96.30;;;;;;4971041;28;20870;-73
2022/04/01 12:34:33;;;;;;;13.03;6.93;;;-0.80;96.30;;;;;;4973813;28;20428;-73
2022/04/01 12:37:01;;;;;;;9.10;8.00;;;-0.90;96.30;;;;;;4977387;28;20467;-73
2022/04/01 12:39:27;;;;;;;12.47;8.50;;;-1.00;96.30;;;;;;4994721;28;20878;-72
2022/04/01 12:41:55;;;;;;;11.33;8.13;;;-0.90;96.30;;;;;;4977581;28;20477;-73
2022/04/01 12:44:25;;;;;;;13.43;9.00;;;-0.80;96.30;;;;;;4995097;28;20978;-73
2022/04/01 12:46:52;;;;;;;9.63;7.50;;;-0.60;96.30;;;;;;4995055;28;20415;-72
2022/04/01 12:49:22;;;;;;;10.53;8.13;;;-0.60;96.30;;;;;;4994945;28;20488;-72
2022/04/01 12:51:50;;;;;;;16.23;7.57;;;-0.50;96.30;;;;;;4977598;28;20821;-72
2022/04/01 12:54:31;;;;;;;8.27;7.37;;;-0.40;96.30;;;;;;4994776;28;20917;-74
2022/04/01 12:56:58;;;;;;;13.90;8.73;;;-0.50;96.30;;;;;;4977324;28;20424;-72
2022/04/01 12:59:24;;;;;;;9.00;6.80;;;-0.40;96.30;;;;;;4994448;28;20962;-72
2022/04/01 13:02:06;;;;;;;12.77;6.27;;;-0.40;96.30;;;;;;4994917;28;20812;-73
2022/04/01 13:04:47;;;;;;;9.20;6.60;;;-0.40;96.30;;;;;;4994731;28;21047;-72
2022/04/01 13:07:22;;;;;;;7.57;5.90;;;-0.30;96.30;;;;;;4977097;28;20495;-72
2022/04/01 13:09:49;;;;;;;5.60;4.27;;;-0.20;96.30;;;;;;4991653;28;20420;-72
2022/04/01 13:12:15;;;;;;;9.37;5.43;;;-0.40;96.30;;;;;;4988117;28;20783;-73
2022/04/01 13:14:41;;;;;;;6.40;5.33;;;-0.30;96.30;;;;;;4984719;28;20422;-72
2022/04/01 13:17:15;;;;;;;6.60;3.80;;;-0.20;96.30;;;;;;4976711;28;20420;-74
2022/04/01 13:19:43;;;;;;;5.33;4.37;;;-0.40;96.30;;;;;;4976573;28;20198;-74
2022/04/01 13:22:08;;;;;;;4.87;4.27;;;-0.40;96.30;;;;;;4993406;28;20491;-72
2022/04/01 13:24:39;;;;;;;6.60;4.53;;;-0.50;96.30;;;;;;4974819;28;20406;-72
2022/04/01 13:27:06;;;;;;;6.57;4.83;;;-0.70;96.30;;;;;;4976585;28;20268;-72
2022/04/01 13:29:33;;;;;;;6.30;4.50;;;-0.60;96.30;;;;;;4976555;28;20523;-72
2022/04/01 13:31:58;;;;;;;6.07;4.57;;;-0.70;96.30;;;;;;4983094;28;20437;-74
2022/04/01 13:34:24;;;;;;;9.40;5.60;;;-0.70;96.30;;;;;;4981242;28;20419;-74
2022/04/01 13:36:49;;;;;;;4.40;4.00;;;-0.60;96.30;;;;;;4994131;28;20541;-74
2022/04/01 13:39:16;;;;;;;4.30;3.50;;;-0.60;96.30;;;;;;4993303;28;20208;-74
2022/04/01 13:41:42;;;;;;;6.80;5.13;;;-0.60;96.30;;;;;;4976533;28;20198;-76
2022/04/01 13:44:07;;;;;;;8.90;5.90;;;-0.60;96.30;;;;;;4975947;28;20783;-73
2022/04/01 13:46:34;;;;;;;5.57;4.20;;;-0.50;96.30;;;;;;4993931;28;20174;-74
2022/04/01 13:48:59;;;;;;;12.63;5.10;;;-0.40;96.30;;;;;;4982577;28;20182;-73
2022/04/01 13:51:25;;;;;;;7.40;5.20;;;-0.30;96.30;;;;;;4974537;28;20425;-74
2022/04/01 13:53:51;;;;;;;7.03;5.70;;;-0.30;96.30;;;;;;4974316;28;20212;-74
2022/04/01 13:56:16;;;;;;;6.73;5.60;;;-0.20;96.30;;;;;;4973183;28;20182;-74
2022/04/01 13:58:42;;;;;;;10.80;5.40;;;-0.10;96.30;;;;;;4972672;28;20320;-75
2022/04/01 14:01:09;;;;;;;7.37;5.67;;;-0.20;96.30;;;;;;4974108;28;20557;-74
2022/04/01 14:03:36;;;;;;;7.17;4.80;;;-0.20;96.30;;;;;;4974136;28;20197;-74
2022/04/01 14:06:01;;;;;;;8.80;6.30;;;-0.20;96.30;;;;;;4974061;28;20500;-76
2022/04/01 14:08:27;;;;;;;10.57;6.40;;;-0.10;96.30;;;;;;4974101;28;20827;-75
2022/04/01 14:10:53;;;;;;;11.23;5.97;;;-0.10;96.30;;;;;;4974164;28;20706;-75
2022/04/01 14:13:19;;;;;;;7.67;4.83;;;-0.10;96.30;;;;;;4972692;28;20465;-75
2022/04/01 14:15:45;;;;;;;6.23;4.20;;;-0.10;96.30;;;;;;4972648;28;20178;-75
2022/04/01 14:18:11;;;;;;;6.10;4.17;;;-0.20;96.30;;;;;;4975507;28;20455;-75
2022/04/01 14:20:36;;;;;;;5.97;3.13;;;-0.20;96.30;;;;;;4993248;28;20209;-74
2022/04/01 14:23:02;;;;;;;5.93;3.90;;;-0.10;96.30;;;;;;4983128;28;20547;-75
2022/04/01 14:25:28;;;;;;;8.13;4.87;;;-0.10;96.30;;;;;;4973878;28;20194;-74
2022/04/01 14:27:53;;;;;;;7.57;4.83;;;-0.20;96.30;;;;;;4973743;28;20166;-73
2022/04/01 14:30:19;;;;;;;3.83;3.10;;;-0.10;96.30;;;;;;4972457;28;20277;-73
2022/04/01 14:32:46;;;;;;;8.77;4.67;;;-0.10;96.30;;;;;;4973706;28;20206;-73
2022/04/01 14:35:12;;;;;;;4.00;3.50;;;-0.10;96.30;;;;;;4973580;28;20166;-73
2022/04/01 14:37:37;;;;;;;6.30;4.50;;;-0.10;96.30;;;;;;4973190;28;20484;-74
2022/04/01 14:40:04;;;;;;;6.87;5.50;;;-0.10;96.30;;;;;;4973510;28;20281;-73
2022/04/01 14:42:30;;;;;;;7.00;4.50;;;-0.10;96.30;;;;;;4972094;28;20222;-74
2022/04/01 14:44:56;;;;;;;8.00;4.17;;;-0.10;96.30;;;;;;4973590;28;20957;-73
2022/04/01 14:47:22;;;;;;;11.97;4.70;;;-0.10;96.30;;;;;;4973514;28;20182;-74
2022/04/01 14:49:47;;;;;;;5.73;4.20;;;0.10;96.30;;;;;;4973294;28;20402;-72
2022/04/01 14:52:14;;;;;;;6.83;4.50;;;0.10;96.30;;;;;;4986583;28;20681;-72
2022/04/01 14:54:39;;;;;;;8.70;4.30;;;0.10;96.30;;;;;;4992568;28;20313;-72
2022/04/01 14:57:05;;;;;;;9.00;3.20;;;0.10;96.30;;;;;;4991464;28;20500;-72
2022/04/01 14:59:31;;;;;;;8.93;4.93;;;0.00;96.30;;;;;;4991987;28;20197;-72
2022/04/01 15:01:56;;;;;;;13.33;4.23;;;0.00;96.30;;;;;;4992722;28;20885;-73
2022/04/01 15:04:22;;;;;;;11.40;4.43;;;0.10;96.30;;;;;;4992156;28;20260;-72
2022/04/01 15:06:48;;;;;;;6.87;4.63;;;0.10;96.30;;;;;;4974379;28;20205;-72
2022/04/01 15:09:14;;;;;;;7.80;5.00;;;0.10;96.30;;;;;;4990943;28;20169;-73
2022/04/01 15:11:40;;;;;;;7.43;4.10;;;0.10;96.30;;;;;;4975145;28;20439;-72
2022/04/01 15:14:06;;;;;;;6.50;4.37;;;0.10;96.30;;;;;;4992665;28;20416;-72
2022/04/01 15:16:31;;;;;;;5.57;4.23;;;0.20;96.30;;;;;;4992779;28;20276;-74
2022/04/01 15:18:57;;;;;;;7.40;4.40;;;0.10;96.30;;;;;;4992407;28;20667;-74
2022/04/01 15:21:23;;;;;;;6.27;4.67;;;0.20;96.30;;;;;;4975059;28;20271;-72
2022/04/01 15:23:48;;;;;;;7.87;5.00;;;0.20;96.30;;;;;;4992558;28;20166;-72
2022/04/01 15:26:15;;;;;;;9.27;5.70;;;0.20;96.30;;;;;;4992485;28;20491;-72
2022/04/01 15:28:41;;;;;;;10.70;9.37;;;0.20;96.30;;;;;;4992380;28;20166;-72
2022/04/01 15:31:06;;;;;;;10.60;7.03;;;0.20;96.30;;;;;;4974926;28;20433;-72
2022/04/01 15:33:32;;;;;;;9.00;5.80;;;0.20;96.30;;;;;;4992769;28;20798;-72
2022/04/01 15:35:58;;;;;;;6.67;5.00;;;0.30;96.30;;;;;;4991711;28;20217;-74
2022/04/01 15:38:30;;;;;;;13.83;6.13;;;0.30;96.30;;;;;;4991669;28;20177;-73
2022/04/01 15:41:03;;;;;;;7.90;4.90;;;0.20;96.30;;;;;;4992194;28;21177;-72
2022/04/01 15:43:29;;;;;;;8.13;4.40;;;0.20;96.30;;;;;;4992166;28;20519;-72
2022/04/01 15:46:00;;;;;;;8.63;5.17;;;0.10;96.30;;;;;;4992376;28;20413;-73
2022/04/01 15:48:25;;;;;;;6.27;4.33;;;0.20;96.30;;;;;;4992093;28;20409;-72
2022/04/01 15:50:51;;;;;;;6.77;4.70;;;0.30;96.30;;;;;;4992110;28;20436;-72
2022/04/01 15:53:16;;;;;;;8.77;3.70;;;0.20;96.30;;;;;;4992328;28;20178;-72
2022/04/01 15:55:43;;;;;;;14.33;5.53;;;0.20;96.30;;;;;;4992266;28;20205;-73
2022/04/01 15:58:13;;;;;;;7.87;5.17;;;0.20;96.30;;;;;;4992343;28;20197;-72
2022/04/01 16:00:39;;;;;;;13.33;5.73;;;0.20;96.30;;;;;;4992107;28;20467;-72
2022/04/01 16:03:14;;;;;;;10.77;5.30;;;0.20;96.30;;;;;;4974727;28;20413;-72
2022/04/01 16:05:42;;;;;;;12.00;5.50;;;0.30;96.30;;;;;;4992142;28;20524;-72
2022/04/01 16:08:11;;;;;;;11.63;5.10;;;0.20;96.30;;;;;;4974422;28;20422;-72
2022/04/01 16:10:40;;;;;;;5.67;4.50;;;0.30;96.30;;;;;;4987825;28;20940;-71
2022/04/01 16:13:07;;;;;;;10.03;5.37;;;0.30;96.30;;;;;;4995608;28;20411;-72
2022/04/01 16:15:35;;;;;;;9.10;5.50;;;0.30;96.30;;;;;;4995619;28;20547;-72
2022/04/01 16:18:01;;;;;;;8.10;4.93;;;0.30;96.30;;;;;;4995391;28;20409;-72
2022/04/01 16:20:27;;;;;;;7.90;6.17;;;0.30;96.30;;;;;;4977209;28;20471;-70
2022/04/01 16:22:53;;;;;;;6.37;4.70;;;0.30;96.30;;;;;;4995468;28;20901;-71
2022/04/01 16:25:19;;;;;;;10.43;5.27;;;0.30;96.30;;;;;;4978202;28;20185;-71
2022/04/01 16:27:47;;;;;;;7.40;4.80;;;0.30;96.30;;;;;;4994994;28;20421;-70
2022/04/01 16:30:13;;;;;;;7.70;4.90;;;0.40;96.30;;;;;;4995623;28;20416;-71
2022/04/01 16:32:38;;;;;;;10.90;5.70;;;0.40;96.30;;;;;;4989905;28;20413;-70
2022/04/01 16:35:09;;;;;;;13.80;5.60;;;0.40;96.30;;;;;;4983037;28;20416;-71
2022/04/01 16:37:35;;;;;;;6.57;5.53;;;0.40;96.30;;;;;;4994233;28;20201;-73
2022/04/01 16:40:01;;;;;;;7.03;4.77;;;0.40;96.30;;;;;;5011536;28;20465;-75
2022/04/01 16:42:26;;;;;;;13.07;4.87;;;0.40;96.30;;;;;;5007621;28;20198;-72
2022/04/01 16:44:52;;;;;;;9.67;6.27;;;0.40;96.30;;;;;;5002522;28;20424;-71
2022/04/01 16:47:18;;;;;;;7.60;5.20;;;0.30;96.30;;;;;;4979154;28;20178;-72
2022/04/01 16:49:47;;;;;;;15.53;6.07;;;0.30;96.30;;;;;;4987416;28;20585;-74
2022/04/01 16:52:13;;;;;;;11.37;4.70;;;0.30;96.30;;;;;;4966742;28;20694;-75
2022/04/01 16:54:39;;;;;;;9.93;4.57;;;0.30;96.30;;;;;;4994399;28;20441;-75
2022/04/01 16:57:06;;;;;;;10.20;4.93;;;0.30;96.30;;;;;;4977866;28;20257;-72
2022/04/01 16:59:32;;;;;;;9.50;5.20;;;0.30;96.30;;;;;;4987415;28;21024;-75
2022/04/01 17:01:57;;;;;;;6.27;3.87;;;0.20;96.30;;;;;;4987094;28;20529;-74
2022/04/01 17:04:24;;;;;;;7.77;4.30;;;0.10;96.30;;;;;;4994553;28;20185;-74
2022/04/01 17:12:38;;;;;;;8.90;5.10;;;0.10;96.30;;;;;;4994728;28;20576;-74
2022/04/01 17:15:15;;;;;;;9.10;4.20;;;0.00;96.30;;;;;;4977301;28;20511;-74
2022/04/01 17:17:41;;;;;;;18.43;5.30;;;0.00;96.30;;;;;;4994320;28;20421;-74